sensor_id;sensor_type;location;lat;lon;timestamp;pressure;altitude;pressure_sealevel;temperature;humidity
63700;BME280;49845;47.130;142.766;2024-01-16T00:01:37;100464.00;;;-20.03;79.68
63700;BME280;49845;47.130;142.766;2024-01-16T00:04:07;100467.41;;;-19.86;79.58
63700;BME280;49845;47.130;142.766;2024-01-16T00:06:41;100466.72;;;-19.61;79.87
63700;BME280;49845;47.130;142.766;2024-01-16T00:09:14;100473.84;;;-19.32;79.92
63700;BME280;49845;47.130;142.766;2024-01-16T00:11:45;100474.19;;;-19.04;79.96
63700;BME280;49845;47.130;142.766;2024-01-16T00:14:15;100474.97;;;-18.81;79.74
63700;BME280;49845;47.130;142.766;2024-01-16T00:16:46;100475.63;;;-18.57;79.83
63700;BME280;49845;47.130;142.766;2024-01-16T00:19:17;100475.22;;;-18.29;79.51
63700;BME280;49845;47.130;142.766;2024-01-16T00:21:49;100476.75;;;-18.05;79.40
63700;BME280;49845;47.130;142.766;2024-01-16T00:24:20;100472.09;;;-17.93;78.63
63700;BME280;49845;47.130;142.766;2024-01-16T00:26:51;100470.06;;;-17.62;78.65
63700;BME280;49845;47.130;142.766;2024-01-16T00:29:21;100480.97;;;-17.35;78.46
63700;BME280;49845;47.130;142.766;2024-01-16T00:31:52;100488.91;;;-17.22;77.65
63700;BME280;49845;47.130;142.766;2024-01-16T00:34:22;100482.00;;;-16.99;77.26
63700;BME280;49845;47.130;142.766;2024-01-16T00:36:54;100483.53;;;-16.73;76.82
63700;BME280;49845;47.130;142.766;2024-01-16T00:39:25;100479.09;;;-16.49;76.66
63700;BME280;49845;47.130;142.766;2024-01-16T00:41:55;100481.41;;;-16.34;76.07
63700;BME280;49845;47.130;142.766;2024-01-16T00:44:25;100486.94;;;-16.19;75.73
63700;BME280;49845;47.130;142.766;2024-01-16T00:46:56;100492.47;;;-16.04;75.64
63700;BME280;49845;47.130;142.766;2024-01-16T00:49:26;100490.50;;;-15.89;75.24
63700;BME280;49845;47.130;142.766;2024-01-16T00:51:59;100488.13;;;-15.69;75.12
63700;BME280;49845;47.130;142.766;2024-01-16T00:54:29;100486.25;;;-15.52;74.69
63700;BME280;49845;47.130;142.766;2024-01-16T00:56:59;100494.41;;;-15.36;73.82
63700;BME280;49845;47.130;142.766;2024-01-16T00:59:30;100489.53;;;-15.15;73.66
63700;BME280;49845;47.130;142.766;2024-01-16T01:02:00;100444.50;;;-15.24;73.00
63700;BME280;49845;47.130;142.766;2024-01-16T01:04:33;100494.25;;;-14.81;72.23
63700;BME280;49845;47.130;142.766;2024-01-16T01:07:05;100487.44;;;-14.63;71.94
63700;BME280;49845;47.130;142.766;2024-01-16T01:09:36;100481.34;;;-14.56;70.62
63700;BME280;49845;47.130;142.766;2024-01-16T01:12:07;100478.06;;;-14.55;70.00
63700;BME280;49845;47.130;142.766;2024-01-16T01:14:38;100483.09;;;-14.55;68.60
63700;BME280;49845;47.130;142.766;2024-01-16T01:17:08;100474.34;;;-14.40;68.61
63700;BME280;49845;47.130;142.766;2024-01-16T01:19:39;100464.47;;;-14.28;67.74
63700;BME280;49845;47.130;142.766;2024-01-16T01:22:11;100466.66;;;-14.12;67.54
63700;BME280;49845;47.130;142.766;2024-01-16T01:24:41;100470.69;;;-13.94;67.64
63700;BME280;49845;47.130;142.766;2024-01-16T01:27:12;100467.81;;;-13.88;66.37
63700;BME280;49845;47.130;142.766;2024-01-16T01:29:42;100457.91;;;-13.76;66.36
63700;BME280;49845;47.130;142.766;2024-01-16T01:32:13;100453.88;;;-13.74;65.24
63700;BME280;49845;47.130;142.766;2024-01-16T01:34:43;100452.38;;;-13.62;65.26
63700;BME280;49845;47.130;142.766;2024-01-16T01:37:15;100460.94;;;-13.50;64.85
63700;BME280;49845;47.130;142.766;2024-01-16T01:39:46;100463.06;;;-13.44;64.09
63700;BME280;49845;47.130;142.766;2024-01-16T01:42:16;100457.41;;;-13.41;63.89
63700;BME280;49845;47.130;142.766;2024-01-16T01:44:47;100449.59;;;-13.34;63.88
63700;BME280;49845;47.130;142.766;2024-01-16T01:47:17;100460.00;;;-13.19;63.30
63700;BME280;49845;47.130;142.766;2024-01-16T01:49:48;100450.41;;;-13.13;62.88
63700;BME280;49845;47.130;142.766;2024-01-16T01:52:20;100448.16;;;-13.20;61.71
63700;BME280;49845;47.130;142.766;2024-01-16T01:54:51;100447.53;;;-13.18;61.13
63700;BME280;49845;47.130;142.766;2024-01-16T01:57:22;100444.28;;;-13.17;60.96
63700;BME280;49845;47.130;142.766;2024-01-16T01:59:53;100445.06;;;-13.28;60.47
63700;BME280;49845;47.130;142.766;2024-01-16T02:02:24;100446.34;;;-13.43;60.15
63700;BME280;49845;47.130;142.766;2024-01-16T02:04:54;100438.78;;;-13.43;60.50
63700;BME280;49845;47.130;142.766;2024-01-16T02:07:27;100437.78;;;-13.35;61.02
63700;BME280;49845;47.130;142.766;2024-01-16T02:09:58;100439.06;;;-13.30;60.16
63700;BME280;49845;47.130;142.766;2024-01-16T02:12:30;100433.25;;;-13.29;59.92
63700;BME280;49845;47.130;142.766;2024-01-16T02:15:01;100425.19;;;-13.25;60.37
63700;BME280;49845;47.130;142.766;2024-01-16T02:17:31;100424.78;;;-13.19;59.95
63700;BME280;49845;47.130;142.766;2024-01-16T02:20:02;100424.63;;;-13.11;59.86
63700;BME280;49845;47.130;142.766;2024-01-16T02:22:36;100432.03;;;-13.02;59.55
63700;BME280;49845;47.130;142.766;2024-01-16T02:25:10;100413.56;;;-13.02;59.12
63700;BME280;49845;47.130;142.766;2024-01-16T02:27:40;100417.94;;;-13.00;59.32
63700;BME280;49845;47.130;142.766;2024-01-16T02:30:11;100423.06;;;-12.88;59.92
63700;BME280;49845;47.130;142.766;2024-01-16T02:32:41;100423.59;;;-12.70;59.68
63700;BME280;49845;47.130;142.766;2024-01-16T02:35:12;100426.50;;;-12.66;59.46
63700;BME280;49845;47.130;142.766;2024-01-16T02:37:43;100415.41;;;-12.57;59.25
63700;BME280;49845;47.130;142.766;2024-01-16T02:40:16;100417.59;;;-12.50;59.00
63700;BME280;49845;47.130;142.766;2024-01-16T02:42:46;100417.16;;;-12.56;57.72
63700;BME280;49845;47.130;142.766;2024-01-16T02:45:17;100413.16;;;-12.65;57.70
63700;BME280;49845;47.130;142.766;2024-01-16T02:47:47;100413.63;;;-12.58;58.36
63700;BME280;49845;47.130;142.766;2024-01-16T02:50:18;100421.13;;;-12.48;58.58
63700;BME280;49845;47.130;142.766;2024-01-16T02:52:49;100420.75;;;-12.43;58.78
63700;BME280;49845;47.130;142.766;2024-01-16T02:55:21;100419.69;;;-12.34;58.72
63700;BME280;49845;47.130;142.766;2024-01-16T02:57:52;100417.53;;;-12.30;59.13
63700;BME280;49845;47.130;142.766;2024-01-16T03:00:22;100419.50;;;-12.26;58.52
63700;BME280;49845;47.130;142.766;2024-01-16T03:02:53;100397.81;;;-12.24;58.40
63700;BME280;49845;47.130;142.766;2024-01-16T03:05:23;100404.94;;;-12.30;57.71
63700;BME280;49845;47.130;142.766;2024-01-16T03:07:54;100398.91;;;-12.32;58.27
63700;BME280;49845;47.130;142.766;2024-01-16T03:10:26;100399.13;;;-12.29;58.32
63700;BME280;49845;47.130;142.766;2024-01-16T03:12:56;100387.09;;;-12.21;58.15
63700;BME280;49845;47.130;142.766;2024-01-16T03:15:27;100397.00;;;-12.12;58.36
63700;BME280;49845;47.130;142.766;2024-01-16T03:17:59;100395.47;;;-12.10;58.09
63700;BME280;49845;47.130;142.766;2024-01-16T03:20:30;100393.50;;;-12.14;58.02
63700;BME280;49845;47.130;142.766;2024-01-16T03:23:01;100392.41;;;-12.06;58.03
63700;BME280;49845;47.130;142.766;2024-01-16T03:25:34;100385.00;;;-11.93;58.51
63700;BME280;49845;47.130;142.766;2024-01-16T03:28:07;100386.13;;;-11.78;59.18
63700;BME280;49845;47.130;142.766;2024-01-16T03:30:38;100375.63;;;-11.72;59.01
63700;BME280;49845;47.130;142.766;2024-01-16T03:33:09;100373.66;;;-11.64;59.60
63700;BME280;49845;47.130;142.766;2024-01-16T03:35:40;100372.34;;;-11.59;58.77
63700;BME280;49845;47.130;142.766;2024-01-16T03:38:10;100368.84;;;-11.61;58.36
63700;BME280;49845;47.130;142.766;2024-01-16T03:40:42;100366.19;;;-11.75;57.51
63700;BME280;49845;47.130;142.766;2024-01-16T03:43:13;100360.94;;;-11.78;57.77
63700;BME280;49845;47.130;142.766;2024-01-16T03:45:43;100350.06;;;-11.77;57.62
63700;BME280;49845;47.130;142.766;2024-01-16T03:48:14;100348.88;;;-11.82;58.19
63700;BME280;49845;47.130;142.766;2024-01-16T03:50:44;100348.22;;;-11.91;58.64
63700;BME280;49845;47.130;142.766;2024-01-16T03:53:15;100341.44;;;-11.92;59.07
63700;BME280;49845;47.130;142.766;2024-01-16T03:55:48;100345.81;;;-11.89;58.85
63700;BME280;49845;47.130;142.766;2024-01-16T03:58:18;100349.00;;;-11.92;59.08
63700;BME280;49845;47.130;142.766;2024-01-16T04:00:49;100342.72;;;-11.97;58.82
63700;BME280;49845;47.130;142.766;2024-01-16T04:03:19;100331.34;;;-11.92;59.15
63700;BME280;49845;47.130;142.766;2024-01-16T04:05:50;100321.91;;;-11.83;59.04
63700;BME280;49845;47.130;142.766;2024-01-16T04:08:20;100326.53;;;-11.77;59.13
63700;BME280;49845;47.130;142.766;2024-01-16T04:10:52;100326.97;;;-11.83;59.39
63700;BME280;49845;47.130;142.766;2024-01-16T04:13:23;100327.84;;;-11.94;59.67
63700;BME280;49845;47.130;142.766;2024-01-16T04:15:53;100332.09;;;-11.93;59.80
63700;BME280;49845;47.130;142.766;2024-01-16T04:18:24;100335.91;;;-11.98;59.76
63700;BME280;49845;47.130;142.766;2024-01-16T04:20:56;100325.84;;;-11.98;59.32
63700;BME280;49845;47.130;142.766;2024-01-16T04:23:26;100332.66;;;-11.85;59.87
63700;BME280;49845;47.130;142.766;2024-01-16T04:25:58;100349.28;;;-11.99;60.03
63700;BME280;49845;47.130;142.766;2024-01-16T04:28:29;100325.41;;;-12.04;61.60
63700;BME280;49845;47.130;142.766;2024-01-16T04:31:00;100339.22;;;-11.99;61.10
63700;BME280;49845;47.130;142.766;2024-01-16T04:33:30;100329.56;;;-11.93;61.04
63700;BME280;49845;47.130;142.766;2024-01-16T04:36:01;100344.94;;;-11.90;60.81
63700;BME280;49845;47.130;142.766;2024-01-16T04:38:31;100296.56;;;-12.20;61.68
63700;BME280;49845;47.130;142.766;2024-01-16T04:41:04;100353.69;;;-11.97;61.71
63700;BME280;49845;47.130;142.766;2024-01-16T04:43:34;100357.16;;;-12.06;61.47
63700;BME280;49845;47.130;142.766;2024-01-16T04:46:05;100358.31;;;-12.25;62.01
63700;BME280;49845;47.130;142.766;2024-01-16T04:48:35;100371.94;;;-12.33;62.44
63700;BME280;49845;47.130;142.766;2024-01-16T04:51:06;100360.53;;;-12.40;62.92
63700;BME280;49845;47.130;142.766;2024-01-16T04:53:37;100369.75;;;-12.40;63.69
63700;BME280;49845;47.130;142.766;2024-01-16T04:56:10;100358.81;;;-12.29;62.69
63700;BME280;49845;47.130;142.766;2024-01-16T04:58:41;100360.59;;;-12.28;61.83
63700;BME280;49845;47.130;142.766;2024-01-16T05:01:13;100368.31;;;-12.14;61.21
63700;BME280;49845;47.130;142.766;2024-01-16T05:03:43;100365.38;;;-12.09;61.58
63700;BME280;49845;47.130;142.766;2024-01-16T05:06:14;100363.09;;;-11.94;61.66
63700;BME280;49845;47.130;142.766;2024-01-16T05:08:45;100367.72;;;-11.77;61.44
63700;BME280;49845;47.130;142.766;2024-01-16T05:11:18;100376.63;;;-11.58;60.97
63700;BME280;49845;47.130;142.766;2024-01-16T05:13:49;100379.59;;;-11.52;61.19
63700;BME280;49845;47.130;142.766;2024-01-16T05:16:25;100380.44;;;-11.63;62.76
63700;BME280;49845;47.130;142.766;2024-01-16T05:18:56;100388.75;;;-11.76;61.54
63700;BME280;49845;47.130;142.766;2024-01-16T05:21:26;100302.72;;;-12.38;62.21
63700;BME280;49845;47.130;142.766;2024-01-16T05:23:57;100400.78;;;-11.84;61.98
63700;BME280;49845;47.130;142.766;2024-01-16T05:26:28;100408.75;;;-11.67;62.11
63700;BME280;49845;47.130;142.766;2024-01-16T05:28:59;100411.38;;;-11.54;62.42
63700;BME280;49845;47.130;142.766;2024-01-16T05:31:29;100417.66;;;-11.49;61.65
63700;BME280;49845;47.130;142.766;2024-01-16T05:34:00;100419.06;;;-11.53;62.06
63700;BME280;49845;47.130;142.766;2024-01-16T05:36:30;100430.25;;;-11.49;61.93
63700;BME280;49845;47.130;142.766;2024-01-16T05:39:01;100436.16;;;-11.60;61.91
63700;BME280;49845;47.130;142.766;2024-01-16T05:41:35;100439.00;;;-11.67;61.77
63700;BME280;49845;47.130;142.766;2024-01-16T05:44:06;100440.19;;;-11.62;62.59
63700;BME280;49845;47.130;142.766;2024-01-16T05:46:36;100440.94;;;-11.63;62.57
63700;BME280;49845;47.130;142.766;2024-01-16T05:49:07;100457.03;;;-11.73;61.89
63700;BME280;49845;47.130;142.766;2024-01-16T05:51:37;100458.97;;;-11.81;62.49
63700;BME280;49845;47.130;142.766;2024-01-16T05:54:08;100450.50;;;-12.05;62.37
63700;BME280;49845;47.130;142.766;2024-01-16T05:56:40;100466.25;;;-12.07;62.99
63700;BME280;49845;47.130;142.766;2024-01-16T05:59:10;100483.22;;;-12.27;63.26
63700;BME280;49845;47.130;142.766;2024-01-16T06:01:41;100485.06;;;-12.46;63.45
63700;BME280;49845;47.130;142.766;2024-01-16T06:04:11;100489.69;;;-12.63;63.57
63700;BME280;49845;47.130;142.766;2024-01-16T06:06:42;100488.16;;;-12.71;63.62
63700;BME280;49845;47.130;142.766;2024-01-16T06:09:13;100488.44;;;-12.78;63.80
63700;BME280;49845;47.130;142.766;2024-01-16T06:11:45;100500.16;;;-12.78;64.30
63700;BME280;49845;47.130;142.766;2024-01-16T06:14:16;100500.16;;;-12.78;64.66
63700;BME280;49845;47.130;142.766;2024-01-16T06:16:50;100505.34;;;-12.87;65.14
63700;BME280;49845;47.130;142.766;2024-01-16T06:19:21;100504.34;;;-12.99;65.47
63700;BME280;49845;47.130;142.766;2024-01-16T06:21:51;100509.41;;;-13.10;65.98
63700;BME280;49845;47.130;142.766;2024-01-16T06:24:21;100512.91;;;-13.18;66.32
63700;BME280;49845;47.130;142.766;2024-01-16T06:26:53;100507.19;;;-13.27;66.63
63700;BME280;49845;47.130;142.766;2024-01-16T06:29:24;100528.78;;;-13.39;66.53
63700;BME280;49845;47.130;142.766;2024-01-16T06:32:02;100543.59;;;-13.53;67.01
63700;BME280;49845;47.130;142.766;2024-01-16T06:34:32;100536.81;;;-13.54;67.53
63700;BME280;49845;47.130;142.766;2024-01-16T06:37:03;100542.63;;;-13.55;67.62
63700;BME280;49845;47.130;142.766;2024-01-16T06:39:33;100549.38;;;-13.64;67.50
63700;BME280;49845;47.130;142.766;2024-01-16T06:42:05;100547.84;;;-13.82;67.64
63700;BME280;49845;47.130;142.766;2024-01-16T06:44:38;100553.56;;;-13.94;68.03
63700;BME280;49845;47.130;142.766;2024-01-16T06:47:08;100548.03;;;-14.00;68.58
63700;BME280;49845;47.130;142.766;2024-01-16T06:49:39;100419.75;;;-14.92;68.69
63700;BME280;49845;47.130;142.766;2024-01-16T06:52:09;100551.69;;;-14.25;69.26
63700;BME280;49845;47.130;142.766;2024-01-16T06:54:39;100560.19;;;-14.34;69.67
63700;BME280;49845;47.130;142.766;2024-01-16T06:57:12;100566.44;;;-14.39;70.00
63700;BME280;49845;47.130;142.766;2024-01-16T06:59:42;100556.22;;;-14.50;70.53
63700;BME280;49845;47.130;142.766;2024-01-16T07:02:13;100569.16;;;-14.46;70.56
63700;BME280;49845;47.130;142.766;2024-01-16T07:04:43;100567.16;;;-14.50;70.93
63700;BME280;49845;47.130;142.766;2024-01-16T07:07:13;100577.44;;;-14.57;71.15
63700;BME280;49845;47.130;142.766;2024-01-16T07:09:45;100577.38;;;-14.67;71.45
63700;BME280;49845;47.130;142.766;2024-01-16T07:12:17;100562.75;;;-14.82;71.62
63700;BME280;49845;47.130;142.766;2024-01-16T07:14:48;100571.69;;;-14.94;72.26
63700;BME280;49845;47.130;142.766;2024-01-16T07:17:19;100569.63;;;-14.98;72.58
63700;BME280;49845;47.130;142.766;2024-01-16T07:19:49;100563.81;;;-15.07;73.15
63700;BME280;49845;47.130;142.766;2024-01-16T07:22:20;100513.63;;;-15.45;73.47
63700;BME280;49845;47.130;142.766;2024-01-16T07:24:50;100561.97;;;-15.18;74.06
63700;BME280;49845;47.130;142.766;2024-01-16T07:27:22;100568.03;;;-15.25;74.11
63700;BME280;49845;47.130;142.766;2024-01-16T07:29:53;100571.34;;;-15.35;74.40
63700;BME280;49845;47.130;142.766;2024-01-16T07:32:23;100563.72;;;-15.45;74.46
63700;BME280;49845;47.130;142.766;2024-01-16T07:34:56;100568.81;;;-15.62;74.37
63700;BME280;49845;47.130;142.766;2024-01-16T07:37:26;100572.63;;;-15.76;74.79
63700;BME280;49845;47.130;142.766;2024-01-16T07:39:57;100574.88;;;-15.88;75.46
63700;BME280;49845;47.130;142.766;2024-01-16T07:42:29;100576.09;;;-16.02;76.01
63700;BME280;49845;47.130;142.766;2024-01-16T07:45:03;100583.78;;;-16.18;76.66
63700;BME280;49845;47.130;142.766;2024-01-16T07:47:34;100585.88;;;-16.31;77.65
63700;BME280;49845;47.130;142.766;2024-01-16T07:50:05;100586.47;;;-16.42;78.25
63700;BME280;49845;47.130;142.766;2024-01-16T07:52:36;100581.78;;;-16.57;78.66
63700;BME280;49845;47.130;142.766;2024-01-16T07:55:07;100580.31;;;-16.63;79.14
63700;BME280;49845;47.130;142.766;2024-01-16T07:57:40;100586.22;;;-16.80;79.32
63700;BME280;49845;47.130;142.766;2024-01-16T08:00:11;100590.66;;;-16.86;79.51
63700;BME280;49845;47.130;142.766;2024-01-16T08:02:41;100594.47;;;-16.99;79.50
63700;BME280;49845;47.130;142.766;2024-01-16T08:05:12;100606.50;;;-17.03;79.63
63700;BME280;49845;47.130;142.766;2024-01-16T08:07:43;100600.91;;;-17.01;80.48
63700;BME280;49845;47.130;142.766;2024-01-16T08:10:13;100612.56;;;-16.84;80.76
63700;BME280;49845;47.130;142.766;2024-01-16T08:12:47;100606.22;;;-16.80;80.43
63700;BME280;49845;47.130;142.766;2024-01-16T08:15:18;100611.81;;;-16.91;79.59
63700;BME280;49845;47.130;142.766;2024-01-16T08:17:48;100607.66;;;-17.00;79.50
63700;BME280;49845;47.130;142.766;2024-01-16T08:20:19;100627.06;;;-17.06;78.90
63700;BME280;49845;47.130;142.766;2024-01-16T08:22:50;100620.00;;;-17.10;78.83
63700;BME280;49845;47.130;142.766;2024-01-16T08:25:20;100623.78;;;-17.22;78.63
63700;BME280;49845;47.130;142.766;2024-01-16T08:27:52;100631.69;;;-17.44;78.20
63700;BME280;49845;47.130;142.766;2024-01-16T08:30:23;100639.56;;;-17.56;78.52
63700;BME280;49845;47.130;142.766;2024-01-16T08:32:53;100644.00;;;-17.54;78.75
63700;BME280;49845;47.130;142.766;2024-01-16T08:35:24;100648.34;;;-17.60;78.76
63700;BME280;49845;47.130;142.766;2024-01-16T08:37:54;100652.00;;;-17.65;78.70
63700;BME280;49845;47.130;142.766;2024-01-16T08:40:25;100648.69;;;-17.48;79.32
63700;BME280;49845;47.130;142.766;2024-01-16T08:42:57;100664.94;;;-17.27;79.29
63700;BME280;49845;47.130;142.766;2024-01-16T08:45:27;100654.63;;;-17.30;78.91
63700;BME280;49845;47.130;142.766;2024-01-16T08:47:58;100663.69;;;-17.40;78.54
63700;BME280;49845;47.130;142.766;2024-01-16T08:50:29;100664.47;;;-17.65;77.63
63700;BME280;49845;47.130;142.766;2024-01-16T08:52:59;100662.97;;;-17.80;78.18
63700;BME280;49845;47.130;142.766;2024-01-16T08:55:30;100662.03;;;-17.90;78.40
63700;BME280;49845;47.130;142.766;2024-01-16T08:58:02;100655.28;;;-17.91;78.87
63700;BME280;49845;47.130;142.766;2024-01-16T09:00:34;100662.03;;;-17.90;79.41
63700;BME280;49845;47.130;142.766;2024-01-16T09:03:04;100661.22;;;-18.06;79.04
63700;BME280;49845;47.130;142.766;2024-01-16T09:05:36;100665.34;;;-18.22;79.24
63700;BME280;49845;47.130;142.766;2024-01-16T09:08:07;100660.53;;;-18.37;79.26
63700;BME280;49845;47.130;142.766;2024-01-16T09:10:40;100663.63;;;-18.55;79.63
63700;BME280;49845;47.130;142.766;2024-01-16T09:13:12;100656.88;;;-18.56;79.79
63700;BME280;49845;47.130;142.766;2024-01-16T09:15:43;100665.72;;;-18.51;80.29
63700;BME280;49845;47.130;142.766;2024-01-16T09:18:15;100663.47;;;-18.41;80.90
63700;BME280;49845;47.130;142.766;2024-01-16T09:20:46;100666.47;;;-18.28;81.22
63700;BME280;49845;47.130;142.766;2024-01-16T09:23:17;100677.78;;;-18.31;80.60
63700;BME280;49845;47.130;142.766;2024-01-16T09:25:47;100669.84;;;-18.11;80.81
63700;BME280;49845;47.130;142.766;2024-01-16T09:28:20;100674.50;;;-18.14;80.01
63700;BME280;49845;47.130;142.766;2024-01-16T09:30:50;100669.72;;;-18.29;79.19
63700;BME280;49845;47.130;142.766;2024-01-16T09:33:20;100675.88;;;-18.65;78.05
63700;BME280;49845;47.130;142.766;2024-01-16T09:35:51;100667.53;;;-18.82;78.43
63700;BME280;49845;47.130;142.766;2024-01-16T09:38:21;100673.75;;;-18.70;79.18
63700;BME280;49845;47.130;142.766;2024-01-16T09:40:52;100669.50;;;-18.71;79.22
63700;BME280;49845;47.130;142.766;2024-01-16T09:43:29;100678.84;;;-18.93;78.85
63700;BME280;49845;47.130;142.766;2024-01-16T09:46:00;100663.31;;;-19.22;78.90
63700;BME280;49845;47.130;142.766;2024-01-16T09:48:31;100685.09;;;-19.12;79.44
63700;BME280;49845;47.130;142.766;2024-01-16T09:51:02;100691.31;;;-19.08;79.81
63700;BME280;49845;47.130;142.766;2024-01-16T09:53:33;100696.19;;;-19.17;79.95
63700;BME280;49845;47.130;142.766;2024-01-16T09:56:04;100688.00;;;-19.39;80.03
63700;BME280;49845;47.130;142.766;2024-01-16T09:58:41;100690.44;;;-19.32;80.63
63700;BME280;49845;47.130;142.766;2024-01-16T10:01:13;100696.97;;;-19.25;80.86
63700;BME280;49845;47.130;142.766;2024-01-16T10:03:45;100690.78;;;-19.29;80.76
63700;BME280;49845;47.130;142.766;2024-01-16T10:06:19;100710.72;;;-19.29;80.27
63700;BME280;49845;47.130;142.766;2024-01-16T10:08:51;100705.84;;;-19.43;80.17
63700;BME280;49845;47.130;142.766;2024-01-16T10:11:21;100712.25;;;-19.45;80.23
63700;BME280;49845;47.130;142.766;2024-01-16T10:13:54;100705.09;;;-19.42;80.14
63700;BME280;49845;47.130;142.766;2024-01-16T10:16:58;100712.47;;;-19.28;79.94
63700;BME280;49845;47.130;142.766;2024-01-16T10:19:31;100697.63;;;-19.42;79.10
63700;BME280;49845;47.130;142.766;2024-01-16T10:22:19;100708.81;;;-19.39;78.79
63700;BME280;49845;47.130;142.766;2024-01-16T10:25:04;100734.28;;;-19.41;78.29
63700;BME280;49845;47.130;142.766;2024-01-16T10:27:36;100720.38;;;-19.62;78.66
63700;BME280;49845;47.130;142.766;2024-01-16T10:30:09;100720.63;;;-19.68;79.57
63700;BME280;49845;47.130;142.766;2024-01-16T10:32:41;100726.34;;;-19.69;79.86
63700;BME280;49845;47.130;142.766;2024-01-16T10:35:13;100710.81;;;-19.66;80.27
63700;BME280;49845;47.130;142.766;2024-01-16T10:37:46;100712.34;;;-19.60;80.55
63700;BME280;49845;47.130;142.766;2024-01-16T10:40:17;100726.16;;;-19.54;80.56
63700;BME280;49845;47.130;142.766;2024-01-16T10:43:02;100737.56;;;-19.57;81.04
63700;BME280;49845;47.130;142.766;2024-01-16T10:45:34;100732.94;;;-19.53;81.43
63700;BME280;49845;47.130;142.766;2024-01-16T10:48:06;100675.09;;;-19.90;81.43
63700;BME280;49845;47.130;142.766;2024-01-16T10:50:38;100728.03;;;-19.22;82.21
63700;BME280;49845;47.130;142.766;2024-01-16T10:53:09;100742.09;;;-18.99;82.15
63700;BME280;49845;47.130;142.766;2024-01-16T10:55:48;100744.88;;;-18.89;81.68
63700;BME280;49845;47.130;142.766;2024-01-16T10:58:22;100749.16;;;-18.95;80.82
63700;BME280;49845;47.130;142.766;2024-01-16T11:00:57;100745.41;;;-19.15;79.51
63700;BME280;49845;47.130;142.766;2024-01-16T11:03:35;100693.25;;;-19.68;78.32
63700;BME280;49845;47.130;142.766;2024-01-16T11:06:07;100732.94;;;-19.53;77.55
63700;BME280;49845;47.130;142.766;2024-01-16T11:08:38;100752.84;;;-19.53;76.61
63700;BME280;49845;47.130;142.766;2024-01-16T11:11:09;100744.88;;;-19.81;75.35
63700;BME280;49845;47.130;142.766;2024-01-16T11:13:41;100740.09;;;-20.24;74.78
63700;BME280;49845;47.130;142.766;2024-01-16T11:16:14;100737.38;;;-20.49;74.97
63700;BME280;49845;47.130;142.766;2024-01-16T11:18:44;100743.84;;;-20.72;76.87
63700;BME280;49845;47.130;142.766;2024-01-16T11:21:16;100739.25;;;-20.76;78.18
63700;BME280;49845;47.130;142.766;2024-01-16T11:23:47;100737.81;;;-20.67;80.17
63700;BME280;49845;47.130;142.766;2024-01-16T11:26:28;100744.13;;;-20.48;81.01
63700;BME280;49845;47.130;142.766;2024-01-16T11:29:34;100739.16;;;-20.10;81.54
63700;BME280;49845;47.130;142.766;2024-01-16T11:32:06;100743.94;;;-20.05;81.18
63700;BME280;49845;47.130;142.766;2024-01-16T11:34:54;100748.16;;;-19.96;80.41
63700;BME280;49845;47.130;142.766;2024-01-16T11:37:28;100747.50;;;-20.10;79.28
63700;BME280;49845;47.130;142.766;2024-01-16T11:40:33;100749.88;;;-20.18;78.56
63700;BME280;49845;47.130;142.766;2024-01-16T11:43:35;100758.06;;;-20.27;77.45
63700;BME280;49845;47.130;142.766;2024-01-16T11:46:06;100726.31;;;-20.36;77.76
63700;BME280;49845;47.130;142.766;2024-01-16T11:48:38;100762.72;;;-19.99;78.47
63700;BME280;49845;47.130;142.766;2024-01-16T11:51:24;100755.03;;;-19.87;78.53
63700;BME280;49845;47.130;142.766;2024-01-16T11:53:55;100754.16;;;-19.87;78.56
63700;BME280;49845;47.130;142.766;2024-01-16T11:59:57;100755.16;;;-19.78;78.75
63700;BME280;49845;47.130;142.766;2024-01-16T12:02:38;100760.81;;;-19.72;78.53
63700;BME280;49845;47.130;142.766;2024-01-16T12:05:12;100750.84;;;-19.72;78.04
63700;BME280;49845;47.130;142.766;2024-01-16T12:07:47;100747.09;;;-19.91;76.83
63700;BME280;49845;47.130;142.766;2024-01-16T12:10:19;100740.06;;;-20.10;76.59
63700;BME280;49845;47.130;142.766;2024-01-16T12:12:50;100650.22;;;-20.80;76.79
63700;BME280;49845;47.130;142.766;2024-01-16T12:15:22;100764.56;;;-20.06;77.26
63700;BME280;49845;47.130;142.766;2024-01-16T12:17:56;100740.59;;;-19.82;77.24
63700;BME280;49845;47.130;142.766;2024-01-16T12:20:30;100733.16;;;-19.82;76.71
63700;BME280;49845;47.130;142.766;2024-01-16T12:23:02;100741.25;;;-19.69;76.75
63700;BME280;49845;47.130;142.766;2024-01-16T12:25:34;100751.84;;;-19.63;76.06
63700;BME280;49845;47.130;142.766;2024-01-16T12:28:25;100750.88;;;-19.79;74.99
63700;BME280;49845;47.130;142.766;2024-01-16T12:31:00;100756.00;;;-20.00;74.39
63700;BME280;49845;47.130;142.766;2024-01-16T12:33:31;100747.16;;;-20.06;74.47
63700;BME280;49845;47.130;142.766;2024-01-16T12:36:04;100757.91;;;-20.28;74.23
63700;BME280;49845;47.130;142.766;2024-01-16T12:38:34;100759.28;;;-20.16;75.10
63700;BME280;49845;47.130;142.766;2024-01-16T12:41:08;100763.88;;;-19.82;75.86
63700;BME280;49845;47.130;142.766;2024-01-16T12:43:39;100764.78;;;-19.81;75.43
63700;BME280;49845;47.130;142.766;2024-01-16T12:46:12;100742.56;;;-20.17;74.53
63700;BME280;49845;47.130;142.766;2024-01-16T12:48:42;100763.69;;;-20.13;74.04